Time;durP1;ratioP1;P1;durP2;ratioP2;P2;SDS_P1;SDS_P2;PMS_P1;PMS_P2;Temp;Humidity;BMP_temperature;BMP_pressure;BME280_temperature;BME280_humidity;BME280_pressure;Samples;Min_cycle;Max_cycle;Signal;HPM_P1;HPM_P2
2021/04/25 00:00:07;;;;;;;14.50;7.33;;;;;;;6.37;59.60;96594.88;5082266;28;20059;-76
2021/04/25 00:02:33;;;;;;;13.73;6.60;;;;;;;6.43;59.73;96601.41;5069920;28;20028;-75
2021/04/25 00:04:58;;;;;;;16.90;6.83;;;;;;;6.34;59.50;96595.16;5050605;28;20150;-76
2021/04/25 00:07:24;;;;;;;15.53;7.17;;;;;;;6.41;59.31;96595.47;5043833;28;20032;-76
2021/04/25 00:09:50;;;;;;;13.80;6.20;;;;;;;6.33;59.85;96589.06;5032622;28;20502;-76
2021/04/25 00:12:16;;;;;;;14.20;6.77;;;;;;;6.10;60.53;96603.16;5051245;28;20029;-76
2021/04/25 00:14:41;;;;;;;14.13;6.00;;;;;;;6.06;60.96;96607.78;5052920;28;20723;-76
2021/04/25 00:17:07;;;;;;;13.93;7.23;;;;;;;5.88;61.56;96601.41;5044565;28;20471;-76
2021/04/25 00:19:33;;;;;;;14.40;6.40;;;;;;;5.81;61.45;96593.22;5059726;28;20021;-76
2021/04/25 00:21:58;;;;;;;13.50;6.53;;;;;;;5.73;62.01;96595.59;5047939;28;20033;-76
2021/04/25 00:24:24;;;;;;;15.23;7.37;;;;;;;5.76;62.27;96595.34;5050448;28;20060;-76
2021/04/25 00:26:50;;;;;;;14.37;7.10;;;;;;;5.69;62.60;96591.56;5059271;28;20032;-77
2021/04/25 00:29:16;;;;;;;13.83;6.40;;;;;;;5.61;62.87;96593.97;5067199;28;20558;-76
2021/04/25 00:31:41;;;;;;;13.10;7.17;;;;;;;5.54;63.55;96596.22;5066407;28;20036;-76
2021/04/25 00:34:07;;;;;;;14.40;6.63;;;;;;;5.62;63.11;96593.00;5107292;28;20070;-76
2021/04/25 00:36:33;;;;;;;11.67;6.50;;;;;;;5.65;63.32;96588.38;5079370;28;20036;-77
2021/04/25 00:38:59;;;;;;;11.37;6.63;;;;;;;5.57;63.12;96590.75;5069270;28;20503;-77
2021/04/25 00:41:25;;;;;;;12.97;6.67;;;;;;;5.64;62.98;96580.66;5055328;28;20463;-78
2021/04/25 00:43:52;;;;;;;14.93;6.73;;;;;;;5.55;63.91;96584.00;5054114;28;20056;-77
2021/04/25 00:46:18;;;;;;;13.13;7.10;;;;;;;5.47;64.17;96584.59;5051205;28;20044;-76
2021/04/25 00:48:44;;;;;;;12.47;6.30;;;;;;;5.40;64.79;96586.03;5052791;28;20028;-77
2021/04/25 00:51:13;;;;;;;14.33;6.37;;;;;;;5.29;65.19;96583.41;5055110;28;20024;-77
2021/04/25 00:53:42;;;;;;;14.23;6.87;;;;;;;5.38;65.27;96583.53;5055472;28;20028;-75
2021/04/25 00:56:09;;;;;;;12.13;6.80;;;;;;;5.33;65.85;96588.28;5059242;28;20439;-77
2021/04/25 00:58:34;;;;;;;14.73;6.43;;;;;;;5.26;66.19;96591.44;5050930;28;20443;-77
2021/04/25 01:01:00;;;;;;;15.20;6.73;;;;;;;5.42;65.27;96584.09;5076664;28;20454;-78
2021/04/25 01:03:26;;;;;;;14.80;6.70;;;;;;;5.47;64.93;96582.00;5064360;28;20154;-76
2021/04/25 01:05:52;;;;;;;13.73;6.40;;;;;;;5.49;65.64;96577.47;5063108;28;20032;-77
2021/04/25 01:08:17;;;;;;;13.83;6.80;;;;;;;5.55;65.74;96584.00;5053073;28;20106;-77
2021/04/25 01:10:43;;;;;;;14.67;7.40;;;;;;;5.55;65.24;96577.00;5051942;28;20107;-77
2021/04/25 01:13:09;;;;;;;14.70;6.97;;;;;;;5.57;65.62;96579.50;5056249;28;20425;-76
2021/04/25 01:15:35;;;;;;;14.60;7.50;;;;;;;5.51;65.62;96579.97;5056611;28;20437;-77
2021/04/25 01:18:00;;;;;;;15.93;7.93;;;;;;;5.37;66.32;96588.88;5034575;28;20452;-77
2021/04/25 01:20:26;;;;;;;15.20;6.47;;;;;;;5.27;66.30;96591.34;5051384;28;20033;-77
2021/04/25 01:22:52;;;;;;;14.80;6.43;;;;;;;5.16;67.13;96593.94;5059525;28;20060;-77
2021/04/25 01:25:21;;;;;;;12.93;7.03;;;;;;;4.97;68.10;96600.53;5071359;28;20063;-76
2021/04/25 01:27:48;;;;;;;13.10;7.03;;;;;;;4.90;67.67;96594.13;5047968;28;20031;-76
2021/04/25 01:30:17;;;;;;;16.67;7.37;;;;;;;5.11;66.97;96588.25;5066999;28;20462;-77
2021/04/25 01:32:43;;;;;;;14.37;6.63;;;;;;;4.99;67.99;96594.38;5053544;28;20447;-77
2021/04/25 01:35:11;;;;;;;16.33;8.03;;;;;;;4.99;67.53;96599.59;5052085;28;20608;-77
2021/04/25 01:37:37;;;;;;;16.70;8.87;;;;;;;5.05;67.58;96599.13;5051071;28;20029;-77
2021/04/25 01:40:05;;;;;;;14.13;7.03;;;;;;;4.96;67.69;96600.66;5044153;28;20478;-77
2021/04/25 01:42:30;;;;;;;11.83;6.63;;;;;;;4.82;68.66;96598.25;5070123;28;20025;-77
2021/04/25 01:44:56;;;;;;;14.57;7.70;;;;;;;4.86;68.87;96599.69;5060605;28;20455;-76
2021/04/25 01:47:22;;;;;;;15.53;8.33;;;;;;;4.78;69.63;96597.66;5063430;28;20036;-78
2021/04/25 01:49:48;;;;;;;19.57;8.27;;;;;;;4.76;69.76;96602.13;5053653;28;20120;-77
2021/04/25 01:52:14;;;;;;;13.30;7.37;;;;;;;4.84;70.16;96596.38;5070606;28;20058;-77
2021/04/25 01:54:39;;;;;;;14.40;8.03;;;;;;;4.81;69.32;96592.22;5050967;28;20517;-77
2021/04/25 01:57:06;;;;;;;15.77;9.03;;;;;;;4.79;69.75;96599.31;5071106;28;20056;-78
2021/04/25 01:59:32;;;;;;;15.67;8.10;;;;;;;4.74;70.18;96591.03;5072736;28;20032;-77
2021/04/25 02:01:57;;;;;;;15.03;8.33;;;;;;;4.72;70.41;96585.91;5054976;28;20527;-77
2021/04/25 02:04:25;;;;;;;12.90;8.10;;;;;;;4.85;69.92;96593.63;5070423;28;20550;-77
2021/04/25 02:06:50;;;;;;;13.90;8.37;;;;;;;4.72;69.92;96592.91;5067940;28;20508;-77
2021/04/25 02:09:16;;;;;;;15.83;8.40;;;;;;;4.80;70.36;96590.56;5070497;28;20427;-77
2021/04/25 02:11:42;;;;;;;15.83;8.63;;;;;;;4.72;70.03;96590.28;5067811;28;20028;-76
2021/04/25 02:14:08;;;;;;;15.37;8.27;;;;;;;4.83;69.46;96592.94;5050969;28;20037;-76
2021/04/25 02:16:34;;;;;;;14.20;7.90;;;;;;;4.85;69.65;96591.03;5062697;28;20069;-77
2021/04/25 02:19:01;;;;;;;14.67;8.00;;;;;;;4.78;69.71;96582.03;5077332;28;20462;-77
2021/04/25 02:21:27;;;;;;;13.00;7.37;;;;;;;4.75;70.42;96587.47;5065769;28;20466;-77
2021/04/25 02:23:55;;;;;;;13.60;7.90;;;;;;;4.83;69.61;96584.28;5065090;28;21084;-77
2021/04/25 02:26:21;;;;;;;16.03;9.23;;;;;;;4.84;69.38;96575.53;5053325;28;20505;-77
2021/04/25 02:28:47;;;;;;;13.53;8.60;;;;;;;4.79;70.56;96577.63;5080497;28;20804;-77
2021/04/25 02:31:12;;;;;;;16.17;9.50;;;;;;;4.61;71.42;96579.84;5083135;28;20298;-76
2021/04/25 02:33:38;;;;;;;19.37;8.73;;;;;;;4.63;71.13;96577.97;5053935;28;20469;-76
2021/04/25 02:36:05;;;;;;;14.90;8.33;;;;;;;4.54;70.50;96578.66;5075433;28;20113;-78
2021/04/25 02:38:31;;;;;;;16.00;8.87;;;;;;;4.49;71.54;96592.84;5079341;28;20044;-77
2021/04/25 02:40:57;;;;;;;21.57;9.63;;;;;;;4.44;71.71;96588.91;5058902;28;20467;-77
2021/04/25 02:43:23;;;;;;;16.90;8.87;;;;;;;4.26;72.05;96583.28;5069582;28;20040;-77
2021/04/25 02:45:49;;;;;;;18.37;8.43;;;;;;;4.17;72.41;96591.75;5078559;28;20974;-76
2021/04/25 02:48:15;;;;;;;19.33;9.83;;;;;;;4.25;71.65;96584.19;5058215;28;20025;-76
2021/04/25 02:50:42;;;;;;;14.80;8.27;;;;;;;4.33;71.03;96597.50;5059926;28;20016;-76
2021/04/25 02:53:09;;;;;;;16.20;8.47;;;;;;;4.29;71.33;96590.84;5076529;28;21030;-77
2021/04/25 02:55:36;;;;;;;16.27;7.57;;;;;;;4.26;71.94;96593.69;5062003;28;20486;-76
2021/04/25 02:58:03;;;;;;;14.90;7.73;;;;;;;4.08;72.33;96592.41;5083666;28;20495;-77
2021/04/25 03:00:29;;;;;;;17.70;8.60;;;;;;;3.85;73.88;96587.06;5061574;28;20573;-75
2021/04/25 03:02:56;;;;;;;15.47;8.63;;;;;;;3.89;73.71;96585.94;5075039;28;20450;-77
2021/04/25 03:05:23;;;;;;;18.63;8.60;;;;;;;3.80;73.74;96578.78;5067735;28;20451;-76
2021/04/25 03:07:48;;;;;;;15.57;8.37;;;;;;;3.84;73.60;96574.19;5082115;28;20533;-80
2021/04/25 03:10:17;;;;;;;16.47;9.13;;;;;;;3.94;72.87;96570.81;5072870;28;20554;-77
2021/04/25 03:12:43;;;;;;;20.07;7.90;;;;;;;3.97;72.60;96580.16;5058315;28;20724;-76
2021/04/25 03:15:10;;;;;;;14.17;8.60;;;;;;;3.91;73.15;96580.59;5063265;28;20492;-77
2021/04/25 03:17:37;;;;;;;17.30;8.47;;;;;;;3.96;72.62;96581.13;5076930;28;20542;-77
2021/04/25 03:20:08;;;;;;;17.03;8.33;;;;;;;3.84;73.52;96572.41;5069187;28;20459;-77
2021/04/25 03:22:34;;;;;;;14.50;8.10;;;;;;;3.84;73.09;96577.63;5058772;28;20509;-76
2021/04/25 03:25:00;;;;;;;12.83;8.30;;;;;;;3.67;73.97;96572.78;5076825;28;20456;-76
2021/04/25 03:27:26;;;;;;;16.67;8.60;;;;;;;3.70;74.16;96572.56;5048296;28;20475;-75
2021/04/25 03:29:52;;;;;;;16.20;8.50;;;;;;;3.83;73.45;96573.34;5068871;28;20024;-77
2021/04/25 03:32:18;;;;;;;18.17;9.13;;;;;;;3.87;73.24;96571.38;5053377;28;20478;-77
2021/04/25 03:34:43;;;;;;;13.80;7.60;;;;;;;3.80;72.99;96570.97;5078373;28;20021;-77
2021/04/25 03:37:09;;;;;;;17.60;9.23;;;;;;;3.80;73.40;96570.16;5075947;28;20029;-77
2021/04/25 03:39:36;;;;;;;12.57;7.17;;;;;;;3.81;72.83;96571.78;5079108;28;20509;-77
2021/04/25 03:42:02;;;;;;;16.93;9.07;;;;;;;3.73;73.79;96577.56;5067745;28;20524;-77
2021/04/25 03:44:28;;;;;;;17.67;8.80;;;;;;;3.72;73.42;96568.06;5056840;28;20044;-77
2021/04/25 03:46:54;;;;;;;16.27;9.33;;;;;;;3.49;74.24;96578.34;5084603;28;20485;-77
2021/04/25 03:49:21;;;;;;;15.77;8.80;;;;;;;3.47;74.68;96577.59;5080032;28;20104;-77
2021/04/25 03:51:51;;;;;;;15.80;8.47;;;;;;;3.44;74.97;96567.41;5057558;28;20489;-77
2021/04/25 03:54:17;;;;;;;15.97;8.57;;;;;;;3.52;74.85;96565.13;5065905;28;21020;-77
2021/04/25 03:56:43;;;;;;;14.60;8.40;;;;;;;3.51;74.23;96567.81;5056604;28;20881;-75
2021/04/25 03:59:09;;;;;;;14.67;8.27;;;;;;;3.34;74.76;96571.59;5065112;28;20433;-76
2021/04/25 04:01:34;;;;;;;15.63;7.53;;;;;;;3.28;75.28;96566.81;5074102;28;20459;-76
2021/04/25 04:04:00;;;;;;;17.37;8.73;;;;;;;3.33;75.62;96556.13;5079270;28;20616;-77
2021/04/25 04:06:26;;;;;;;16.33;8.73;;;;;;;3.17;75.65;96561.53;5061341;28;20029;-77
2021/04/25 04:08:52;;;;;;;12.73;8.03;;;;;;;3.28;75.41;96559.00;5058568;28;20031;-77
2021/04/25 04:11:17;;;;;;;17.20;8.37;;;;;;;3.28;75.18;96561.63;5082946;28;20043;-76
2021/04/25 04:13:43;;;;;;;17.67;8.17;;;;;;;3.20;75.30;96569.13;5078242;28;20025;-76
2021/04/25 04:16:09;;;;;;;14.70;8.50;;;;;;;3.15;76.06;96571.19;5051367;28;20554;-77
2021/04/25 04:18:35;;;;;;;15.40;8.47;;;;;;;2.98;76.94;96580.13;5065469;28;20036;-77
2021/04/25 04:21:00;;;;;;;17.13;7.87;;;;;;;3.06;76.21;96585.66;5054207;28;20025;-77
2021/04/25 04:23:26;;;;;;;15.60;8.07;;;;;;;3.14;76.19;96574.75;5078371;28;20044;-77
2021/04/25 04:25:51;;;;;;;17.63;8.60;;;;;;;3.12;76.07;96582.66;5059795;28;20115;-77
2021/04/25 04:28:17;;;;;;;17.10;8.20;;;;;;;3.03;76.38;96581.50;5045228;28;20056;-77
2021/04/25 04:30:43;;;;;;;18.50;8.93;;;;;;;3.13;76.74;96578.28;5060004;28;20043;-76
2021/04/25 04:33:09;;;;;;;16.73;8.97;;;;;;;3.16;76.20;96580.66;5059749;28;20036;-76
2021/04/25 04:35:34;;;;;;;17.03;8.90;;;;;;;3.15;75.79;96591.97;5074728;28;20083;-76
2021/04/25 04:38:00;;;;;;;16.97;8.53;;;;;;;3.13;76.59;96596.47;5053880;28;20047;-77
2021/04/25 04:40:27;;;;;;;16.80;9.77;;;;;;;3.02;77.34;96597.22;5077510;28;20450;-79
2021/04/25 04:42:53;;;;;;;14.73;8.87;;;;;;;3.19;76.09;96598.66;5078600;28;20032;-76
2021/04/25 04:45:19;;;;;;;17.47;9.47;;;;;;;3.22;75.93;96604.47;5058340;28;20537;-76
2021/04/25 04:47:46;;;;;;;18.67;8.80;;;;;;;3.31;75.26;96603.00;5074249;28;20567;-75
2021/04/25 04:50:13;;;;;;;16.07;8.07;;;;;;;3.36;75.72;96611.31;5071844;28;20064;-77
2021/04/25 04:52:39;;;;;;;21.80;10.63;;;;;;;3.46;75.79;96611.53;5054175;28;20473;-77
2021/04/25 04:55:06;;;;;;;16.47;8.20;;;;;;;3.54;74.60;96604.00;5075908;28;20490;-76
2021/04/25 04:57:31;;;;;;;15.67;8.60;;;;;;;3.64;74.26;96609.41;5076247;28;20424;-76
2021/04/25 04:59:57;;;;;;;15.00;8.63;;;;;;;3.75;74.36;96609.47;5058224;28;20554;-76
2021/04/25 05:02:23;;;;;;;15.23;8.97;;;;;;;3.93;74.20;96615.16;5058770;28;20483;-76
2021/04/25 05:04:49;;;;;;;20.47;11.03;;;;;;;3.95;74.24;96629.72;5070518;28;20032;-77
2021/04/25 05:07:15;;;;;;;18.43;8.97;;;;;;;3.85;74.35;96628.69;5078288;28;20044;-77
2021/04/25 05:09:40;;;;;;;16.37;9.03;;;;;;;4.10;73.67;96626.97;5077234;28;20036;-77
2021/04/25 05:12:07;;;;;;;13.47;8.07;;;;;;;4.38;72.08;96624.03;5063291;28;20450;-77
2021/04/25 05:14:33;;;;;;;15.87;8.87;;;;;;;4.49;71.80;96626.69;5051886;28;20731;-76
2021/04/25 05:16:58;;;;;;;15.87;9.07;;;;;;;4.71;70.76;96627.72;5078624;28;21269;-77
2021/04/25 05:19:24;;;;;;;18.03;9.73;;;;;;;4.60;71.99;96627.69;5078803;28;20051;-77
2021/04/25 05:21:50;;;;;;;16.33;8.70;;;;;;;4.66;71.04;96635.03;5079903;28;20031;-77
2021/04/25 05:24:15;;;;;;;19.47;8.67;;;;;;;5.00;69.67;96628.16;5078492;28;20032;-75
2021/04/25 05:26:41;;;;;;;16.50;8.43;;;;;;;5.26;68.93;96628.78;5081250;28;20039;-75
2021/04/25 05:29:07;;;;;;;15.27;8.80;;;;;;;5.29;68.07;96628.56;5060876;28;20040;-75
2021/04/25 05:31:33;;;;;;;18.90;8.70;;;;;;;5.57;67.14;96623.84;5068136;28;20040;-77
2021/04/25 05:33:59;;;;;;;17.97;9.27;;;;;;;5.84;66.16;96628.69;5076286;28;20036;-78
2021/04/25 05:36:25;;;;;;;13.77;8.13;;;;;;;5.91;66.35;96635.09;5065216;28;20082;-77
2021/04/25 05:38:50;;;;;;;16.23;10.03;;;;;;;6.31;64.54;96632.78;5071697;28;20130;-78
2021/04/25 05:41:18;;;;;;;20.00;9.57;;;;;;;6.57;63.45;96632.44;5078506;28;20486;-77
2021/04/25 05:43:46;;;;;;;20.63;10.33;;;;;;;6.56;63.31;96630.78;5078771;28;20039;-77
2021/04/25 05:46:13;;;;;;;19.47;10.63;;;;;;;6.71;62.30;96634.78;5057396;28;20499;-78
2021/04/25 05:48:40;;;;;;;17.33;9.50;;;;;;;6.96;61.20;96636.19;5061981;28;20491;-78
2021/04/25 05:51:06;;;;;;;17.73;9.50;;;;;;;6.97;62.44;96637.03;5081427;28;20462;-78
2021/04/25 05:53:32;;;;;;;15.23;8.93;;;;;;;7.18;61.32;96639.66;5082104;28;20510;-76
2021/04/25 05:55:58;;;;;;;18.07;10.23;;;;;;;7.19;61.65;96639.53;5067648;28;20039;-78
2021/04/25 05:58:27;;;;;;;18.50;9.90;;;;;;;7.09;61.77;96647.31;5058163;28;20025;-77
2021/04/25 06:00:52;;;;;;;17.23;9.20;;;;;;;7.60;58.89;96656.13;5058446;28;20119;-78
2021/04/25 06:03:18;;;;;;;18.87;9.70;;;;;;;7.67;59.11;96659.88;5058819;28;20039;-78
2021/04/25 06:05:44;;;;;;;15.47;9.13;;;;;;;8.00;59.03;96655.34;5085220;28;20478;-77
2021/04/25 06:08:09;;;;;;;16.00;9.80;;;;;;;8.72;56.25;96647.25;5062418;28;20405;-77
2021/04/25 06:10:35;;;;;;;18.27;9.63;;;;;;;9.35;54.50;96644.13;5064377;28;20036;-76
2021/04/25 06:13:01;;;;;;;16.30;9.77;;;;;;;9.05;54.44;96647.75;5060897;28;20085;-78
2021/04/25 06:15:27;;;;;;;17.60;9.90;;;;;;;8.36;56.52;96648.69;5079370;28;20617;-78
2021/04/25 06:17:53;;;;;;;14.93;9.13;;;;;;;8.73;56.87;96650.69;5057259;28;20059;-78
2021/04/25 06:20:20;;;;;;;18.10;9.83;;;;;;;8.90;55.34;96654.41;5071858;28;20078;-78
2021/04/25 06:22:46;;;;;;;14.87;9.67;;;;;;;9.52;53.35;96645.19;5054958;28;20119;-76
2021/04/25 06:25:15;;;;;;;15.53;10.03;;;;;;;9.87;52.25;96654.22;5060340;28;20074;-77
2021/04/25 06:27:41;;;;;;;16.63;9.53;;;;;;;9.23;54.06;96652.31;5070138;28;20055;-78
2021/04/25 06:30:09;;;;;;;16.33;10.00;;;;;;;9.36;54.86;96653.66;5067336;28;20025;-78
2021/04/25 06:32:35;;;;;;;15.63;9.87;;;;;;;9.41;53.94;96648.00;5051652;28;20443;-79
2021/04/25 06:35:01;;;;;;;21.37;10.17;;;;;;;9.30;54.32;96663.91;5068773;28;20689;-77
2021/04/25 06:37:27;;;;;;;17.70;11.50;;;;;;;9.35;54.47;96656.41;5069783;28;20051;-77
2021/04/25 06:39:53;;;;;;;14.93;9.83;;;;;;;9.50;53.46;96652.41;5065413;28;20121;-76
2021/04/25 06:42:19;;;;;;;16.47;9.30;;;;;;;10.06;51.82;96658.53;5058256;28;20059;-79
2021/04/25 06:44:44;;;;;;;16.03;10.60;;;;;;;9.25;54.19;96664.31;5060201;28;20436;-79
2021/04/25 06:47:10;;;;;;;15.83;9.73;;;;;;;9.59;54.24;96662.06;5065217;28;20042;-79
2021/04/25 06:49:36;;;;;;;16.20;10.30;;;;;;;9.49;53.38;96668.28;5060677;28;20501;-79
2021/04/25 06:52:02;;;;;;;15.67;9.67;;;;;;;9.90;51.41;96664.44;5084218;28;20043;-78
2021/04/25 06:54:28;;;;;;;15.27;9.47;;;;;;;10.39;50.82;96662.41;5061260;28;20028;-78
2021/04/25 06:56:54;;;;;;;16.33;10.63;;;;;;;10.56;50.51;96660.78;5057955;28;20021;-77
2021/04/25 06:59:20;;;;;;;15.67;9.43;;;;;;;10.50;50.41;96667.47;5073575;28;20074;-78
2021/04/25 07:01:45;;;;;;;13.77;9.13;;;;;;;11.00;48.93;96653.81;5059864;28;20016;-78
2021/04/25 07:04:11;;;;;;;15.07;10.23;;;;;;;11.20;49.19;96651.84;5065525;28;20067;-77
2021/04/25 07:06:37;;;;;;;20.63;10.63;;;;;;;11.75;48.12;96661.25;5044570;28;20032;-78
2021/04/25 07:09:03;;;;;;;19.70;11.03;;;;;;;11.47;48.89;96657.97;5056643;28;20124;-79
2021/04/25 07:11:29;;;;;;;14.10;10.23;;;;;;;12.32;46.52;96656.28;5082072;28;20107;-79
2021/04/25 07:13:55;;;;;;;14.40;9.97;;;;;;;11.66;47.29;96662.19;5070486;28;20032;-79
2021/04/25 07:16:20;;;;;;;13.73;9.10;;;;;;;12.59;45.20;96657.03;5064067;28;20036;-79
2021/04/25 07:18:46;;;;;;;13.77;9.47;;;;;;;11.74;47.13;96657.00;5061036;28;20021;-78
2021/04/25 07:21:12;;;;;;;17.80;9.47;;;;;;;11.97;47.31;96660.75;5062654;28;20013;-79
2021/04/25 07:23:38;;;;;;;15.73;9.10;;;;;;;13.21;43.15;96655.63;5080006;28;20067;-77
2021/04/25 07:26:04;;;;;;;13.90;8.70;;;;;;;12.14;44.70;96648.47;5079263;28;20333;-79
2021/04/25 07:28:31;;;;;;;12.17;8.90;;;;;;;12.16;44.70;96650.94;5064481;28;20028;-78
2021/04/25 07:30:56;;;;;;;18.30;9.77;;;;;;;12.46;43.67;96649.56;5058450;28;20107;-78
2021/04/25 07:33:22;;;;;;;13.53;9.20;;;;;;;12.95;43.14;96653.13;5060186;28;20129;-79
2021/04/25 07:35:48;;;;;;;16.93;9.10;;;;;;;13.11;43.34;96654.09;5061100;28;20110;-79
2021/04/25 07:38:14;;;;;;;11.23;8.23;;;;;;;13.40;41.20;96651.81;5073310;28;20052;-79
2021/04/25 07:40:40;;;;;;;12.70;8.63;;;;;;;12.36;43.60;96657.63;5062543;28;20029;-79
2021/04/25 07:43:07;;;;;;;13.10;8.17;;;;;;;13.30;40.91;96653.81;5058546;28;20058;-79
2021/04/25 07:45:34;;;;;;;13.47;8.03;;;;;;;13.16;41.33;96654.47;5074469;28;20020;-79
2021/04/25 07:48:00;;;;;;;14.53;8.47;;;;;;;13.15;40.86;96658.09;5057737;28;20040;-79
2021/04/25 07:50:25;;;;;;;10.60;7.10;;;;;;;13.68;39.31;96644.38;5067845;28;20024;-78
2021/04/25 07:52:51;;;;;;;12.17;7.03;;;;;;;14.06;38.51;96657.81;5048415;28;20072;-78
2021/04/25 07:55:18;;;;;;;13.17;7.30;;;;;;;14.37;37.79;96649.91;5049956;28;20025;-79
2021/04/25 07:57:43;;;;;;;12.00;7.90;;;;;;;14.57;37.46;96649.50;5071754;28;20549;-78
2021/04/25 08:00:12;;;;;;;11.80;7.20;;;;;;;13.86;38.88;96654.72;5066342;28;20075;-78
2021/04/25 08:02:38;;;;;;;12.10;6.97;;;;;;;13.80;38.71;96654.59;5069136;28;20041;-79
2021/04/25 08:05:06;;;;;;;12.17;7.13;;;;;;;13.84;38.33;96659.34;5073147;28;20032;-78
2021/04/25 08:07:31;;;;;;;11.63;7.33;;;;;;;15.26;36.52;96652.22;5061532;28;20036;-79
2021/04/25 08:09:57;;;;;;;14.73;8.00;;;;;;;16.10;34.64;96639.63;5060239;28;20024;-78
2021/04/25 08:12:22;;;;;;;11.97;6.47;;;;;;;16.12;34.45;96644.75;5082437;28;20047;-79
2021/04/25 08:14:48;;;;;;;12.10;7.30;;;;;;;15.57;35.21;96646.78;5080370;28;20633;-79
2021/04/25 08:17:14;;;;;;;10.60;6.60;;;;;;;13.72;39.01;96660.72;5060538;28;20037;-79
2021/04/25 08:19:40;;;;;;;12.53;7.00;;;;;;;15.60;36.05;96649.09;5067052;28;20035;-79
2021/04/25 08:22:07;;;;;;;22.47;13.23;;;;;;;14.24;37.87;96665.50;5050735;28;20032;-79
2021/04/25 08:24:33;;;;;;;23.87;13.43;;;;;;;14.29;37.09;96657.06;5073203;28;20063;-78
2021/04/25 08:27:01;;;;;;;13.33;7.03;;;;;;;15.12;35.92;96650.31;5063457;28;20774;-79
2021/04/25 08:29:27;;;;;;;10.43;6.63;;;;;;;15.69;34.73;96656.00;5062762;28;20035;-78
2021/04/25 08:31:53;;;;;;;12.07;6.50;;;;;;;17.02;31.66;96647.03;5059253;28;20091;-78
2021/04/25 08:34:19;;;;;;;10.17;6.40;;;;;;;16.31;32.71;96648.69;5055043;28;20053;-77
2021/04/25 08:36:45;;;;;;;10.33;6.67;;;;;;;17.10;31.82;96652.25;5074424;28;20017;-79
2021/04/25 08:39:11;;;;;;;8.83;6.17;;;;;;;17.86;30.69;96644.50;5066089;28;20104;-79
2021/04/25 08:41:39;;;;;;;12.83;7.27;;;;;;;17.39;31.66;96655.78;5077866;28;20036;-79
2021/04/25 08:44:07;;;;;;;11.33;6.43;;;;;;;18.28;30.56;96650.69;5061100;28;20027;-79
2021/04/25 08:46:33;;;;;;;10.83;6.57;;;;;;;18.69;30.03;96635.69;5079439;28;20032;-79
2021/04/25 08:48:59;;;;;;;11.95;6.38;;;;;;;16.92;32.55;96652.66;5067729;28;20020;-78
2021/04/25 08:51:25;;;;;;;11.23;6.57;;;;;;;16.71;32.53;96656.09;5082160;28;20044;-79
2021/04/25 08:53:51;;;;;;;9.60;6.73;;;;;;;17.31;31.73;96646.09;5085956;28;20098;-81
2021/04/25 08:56:18;;;;;;;11.00;5.87;;;;;;;16.68;33.60;96651.16;5067816;28;20729;-79
2021/04/25 08:58:46;;;;;;;9.83;6.67;;;;;;;17.05;32.82;96657.31;5056773;28;20078;-79
2021/04/25 09:01:12;;;;;;;10.40;6.77;;;;;;;17.11;32.14;96645.91;5080822;28;20044;-79
2021/04/25 09:03:38;;;;;;;9.03;6.13;;;;;;;16.17;33.29;96650.34;5078997;28;20036;-78
2021/04/25 09:06:12;;;;;;;11.20;7.00;;;;;;;16.07;34.00;96647.97;5075871;28;20036;-78
2021/04/25 09:08:44;;;;;;;10.45;6.30;;;;;;;15.84;33.35;96652.53;5056375;28;20307;-79
2021/04/25 09:11:35;;;;;;;11.80;7.15;;;;;;;13.26;38.34;96660.44;5062438;28;20029;-79
2021/04/25 09:14:16;;;;;;;9.97;6.50;;;;;;;16.02;33.68;96656.44;5061138;28;20732;-79
2021/04/25 09:16:55;;;;;;;12.30;6.60;;;;;;;16.40;33.93;96653.69;5068099;28;20041;-77
2021/04/25 09:19:22;;;;;;;9.63;5.90;;;;;;;17.65;30.26;96653.31;5080454;28;20041;-79
2021/04/25 09:21:55;;;;;;;10.47;6.10;;;;;;;18.96;28.37;96642.75;5072307;28;20012;-79
2021/04/25 09:24:29;;;;;;;8.63;5.60;;;;;;;17.52;29.90;96644.44;5060471;28;20049;-79
2021/04/25 09:26:55;;;;;;;9.07;5.90;;;;;;;18.41;28.91;96647.25;5074997;28;20032;-77
2021/04/25 09:29:26;;;;;;;8.97;6.00;;;;;;;19.54;26.81;96636.84;5087381;28;20032;-80
2021/04/25 09:31:55;;;;;;;8.30;5.43;;;;;;;20.16;26.11;96630.22;5057736;28;20040;-79
2021/04/25 09:34:27;;;;;;;10.18;6.18;;;;;;;20.33;26.85;96635.91;5076431;28;20054;-80
2021/04/25 09:36:55;;;;;;;9.93;5.43;;;;;;;19.00;27.18;96635.97;5068616;28;20059;-79
2021/04/25 09:39:21;;;;;;;10.45;4.93;;;;;;;19.34;27.38;96630.69;5082034;28;20046;-80
2021/04/25 09:41:47;;;;;;;8.80;5.00;;;;;;;18.82;27.80;96638.41;5084884;28;20055;-78
2021/04/25 09:44:34;;;;;;;8.93;4.70;;;;;;;19.80;26.38;96633.38;5066944;28;20420;-79
2021/04/25 09:47:03;;;;;;;7.32;4.40;;;;;;;19.65;26.17;96627.41;5073459;28;20058;-78
2021/04/25 09:49:48;;;;;;;7.47;4.68;;;;;;;17.18;28.07;96633.50;5070932;28;20414;-80
2021/04/25 09:52:31;;;;;;;8.10;4.40;;;;;;;19.37;26.79;96622.28;5080886;28;20036;-80
2021/04/25 09:55:19;;;;;;;7.03;4.97;;;;;;;19.38;27.34;96616.72;5049338;28;20058;-80
2021/04/25 09:57:47;;;;;;;9.00;4.95;;;;;;;18.17;27.42;96626.44;5073341;28;20631;-79
2021/04/25 10:00:13;;;;;;;8.73;5.75;;;;;;;18.65;27.17;96615.81;5073968;28;20025;-80
2021/04/25 10:02:55;;;;;;;15.52;12.40;;;;;;;20.05;25.30;96619.34;5070612;28;20028;-80
2021/04/25 10:05:21;;;;;;;12.18;7.15;;;;;;;19.35;25.98;96614.50;5072262;28;20056;-80
2021/04/25 10:07:47;;;;;;;7.65;4.57;;;;;;;16.96;29.03;96629.19;5050144;28;20028;-80
2021/04/25 10:10:18;;;;;;;8.60;4.55;;;;;;;18.26;27.54;96611.94;5069885;28;20115;-80
2021/04/25 10:12:48;;;;;;;10.75;5.15;;;;;;;17.92;27.50;96618.94;5058318;28;20090;-80
2021/04/25 10:15:15;;;;;;;11.40;6.05;;;;;;;19.46;26.39;96608.53;5079524;28;20396;-80
2021/04/25 10:17:45;;;;;;;6.78;3.67;;;;;;;20.37;23.95;96609.59;5068728;28;20033;-80
2021/04/25 10:20:12;;;;;;;7.63;4.65;;;;;;;20.87;23.34;96615.16;5082990;28;20097;-80
2021/04/25 10:22:43;;;;;;;7.28;3.70;;;;;;;21.26;21.69;96614.06;5074990;28;20024;-80
2021/04/25 10:25:17;;;;;;;11.38;4.63;;;;;;;19.95;24.28;96607.28;5083611;28;20040;-81
2021/04/25 10:27:50;;;;;;;7.43;4.80;;;;;;;19.82;24.80;96614.47;5074969;28;20078;-81
2021/04/25 10:30:16;;;;;;;9.68;5.35;;;;;;;18.83;26.24;96624.06;5063339;28;20033;-81
2021/04/25 10:32:44;;;;;;;10.68;4.90;;;;;;;19.10;25.50;96618.78;5067671;28;20043;-81
2021/04/25 10:35:13;;;;;;;9.20;4.63;;;;;;;18.49;26.40;96616.97;5067903;28;20501;-79
2021/04/25 10:37:40;;;;;;;10.93;4.80;;;;;;;19.17;25.66;96611.59;5062678;28;20047;-77
2021/04/25 10:40:36;;;;;;;9.90;5.60;;;;;;;19.24;24.92;96615.09;5071956;28;20043;-78
2021/04/25 10:43:12;;;;;;;8.07;4.80;;;;;;;19.76;24.58;96616.16;5072141;28;20429;-78
2021/04/25 10:45:57;;;;;;;8.38;4.53;;;;;;;19.38;24.24;96614.06;5062100;28;20033;-79
2021/04/25 10:48:31;;;;;;;9.10;4.80;;;;;;;19.86;23.89;96608.53;5082113;28;20039;-80
2021/04/25 10:51:05;;;;;;;6.72;4.35;;;;;;;19.11;24.71;96610.56;5072440;28;20021;-77
2021/04/25 10:53:34;;;;;;;8.18;5.38;;;;;;;19.43;25.04;96600.94;5082719;28;20039;-82
2021/04/25 10:56:20;;;;;;;9.35;5.20;;;;;;;19.48;24.70;96594.97;5074821;28;20017;-80
2021/04/25 10:58:48;;;;;;;8.55;4.72;;;;;;;20.06;24.09;96587.13;5057383;28;20032;-80
2021/04/25 11:01:39;;;;;;;9.90;5.47;;;;;;;20.21;24.48;96590.34;5066688;28;20025;-79
2021/04/25 11:04:08;;;;;;;9.13;4.95;;;;;;;20.29;23.83;96588.47;5079713;28;20062;-81
2021/04/25 11:06:34;;;;;;;9.15;5.32;;;;;;;19.52;25.30;96594.38;5058330;28;20092;-79
2021/04/25 11:09:07;;;;;;;7.68;4.97;;;;;;;20.30;24.28;96592.78;5082774;28;20660;-80
2021/04/25 11:11:38;;;;;;;7.10;4.75;;;;;;;20.83;23.23;96587.22;5061284;28;20135;-79
2021/04/25 11:14:39;;;;;;;9.15;5.55;;;;;;;19.49;24.39;96589.47;5077585;28;20465;-79
2021/04/25 11:17:31;;;;;;;8.18;5.30;;;;;;;18.82;26.60;96595.78;5053467;28;20052;-80
2021/04/25 11:19:57;;;;;;;7.90;4.75;;;;;;;19.59;25.66;96590.88;5044202;28;20040;-79
2021/04/25 11:22:45;;;;;;;8.57;4.80;;;;;;;19.69;25.61;96592.13;5080520;28;20050;-79
2021/04/25 11:25:31;;;;;;;7.63;4.95;;;;;;;19.81;25.11;96602.97;5060966;28;20028;-80
2021/04/25 11:27:57;;;;;;;8.75;5.63;;;;;;;19.53;24.12;96598.69;5057122;28;20483;-80
2021/04/25 11:30:42;;;;;;;10.38;5.47;;;;;;;20.41;23.74;96600.94;5057261;28;20026;-79
2021/04/25 11:33:31;;;;;;;6.70;3.90;;;;;;;20.99;23.15;96596.56;5043873;28;20420;-79